createdAt,value
2019-02-22T00:03:32.843Z,19.47
2019-02-22T00:07:37.418Z,20.30
2019-02-22T00:11:41.930Z,20.20
2019-02-22T00:15:46.532Z,19.30
2019-02-22T00:19:51.080Z,20.43
2019-02-22T00:23:55.634Z,19.53
2019-02-22T00:28:00.303Z,19.67
2019-02-22T00:32:04.843Z,19.23
2019-02-22T00:36:09.464Z,16.60
2019-02-22T00:40:14.038Z,18.27
2019-02-22T00:44:18.599Z,18.53
2019-02-22T00:48:23.197Z,15.90
2019-02-22T00:52:28.695Z,19.07
2019-02-22T00:56:33.239Z,18.33
2019-02-22T01:00:37.782Z,17.93
2019-02-22T01:04:42.327Z,16.83
2019-02-22T01:08:46.871Z,18.70
2019-02-22T01:12:51.400Z,19.97
2019-02-22T01:16:57.345Z,18.83
2019-02-22T01:21:02.004Z,19.27
2019-02-22T01:25:06.547Z,19.00
2019-02-22T01:29:11.087Z,18.77
2019-02-22T01:33:15.658Z,20.07
2019-02-22T01:37:20.203Z,19.73
2019-02-22T01:41:24.746Z,20.27
2019-02-22T01:45:29.255Z,18.87
2019-02-22T01:49:33.803Z,19.13
2019-02-22T01:53:38.428Z,20.40
2019-02-22T01:57:42.967Z,19.90
2019-02-22T02:01:47.524Z,18.17
2019-02-22T02:05:52.086Z,19.73
2019-02-22T02:09:56.651Z,21.33
2019-02-22T02:14:01.215Z,19.57
2019-02-22T02:18:05.764Z,18.10
2019-02-22T02:22:10.337Z,18.50
2019-02-22T02:26:14.848Z,20.77
2019-02-22T02:30:19.388Z,20.27
2019-02-22T02:34:23.929Z,20.53
2019-02-22T02:38:28.480Z,19.67
2019-02-22T02:42:33.064Z,20.60
2019-02-22T02:46:37.563Z,21.00
2019-02-22T02:50:42.090Z,21.17
2019-02-22T02:54:46.668Z,19.70
2019-02-22T02:58:51.203Z,20.07
2019-02-22T03:02:55.774Z,20.37
2019-02-22T03:07:14.104Z,19.50
2019-02-22T03:11:20.954Z,19.47
2019-02-22T03:15:24.864Z,19.93
2019-02-22T03:19:29.390Z,21.37
2019-02-22T03:23:33.956Z,20.80
2019-02-22T03:27:38.512Z,21.23
2019-02-22T03:31:43.057Z,21.03
2019-02-22T03:35:47.588Z,19.57
2019-02-22T03:39:52.109Z,20.50
2019-02-22T03:43:56.630Z,22.20
2019-02-22T03:48:01.195Z,20.07
2019-02-22T03:52:43.041Z,21.40
2019-02-22T03:56:47.576Z,23.23
2019-02-22T04:00:52.118Z,21.27
2019-02-22T04:04:56.656Z,23.13
2019-02-22T04:09:01.184Z,24.00
2019-02-22T04:13:05.739Z,20.90
2019-02-22T04:17:11.512Z,23.00
2019-02-22T04:21:16.169Z,23.20
2019-02-22T04:25:20.659Z,23.67
2019-02-22T04:29:25.196Z,23.20
2019-02-22T04:33:29.724Z,23.37
2019-02-22T04:37:34.295Z,21.47
2019-02-22T04:41:38.833Z,22.13
2019-02-22T04:45:43.352Z,23.27
2019-02-22T04:49:47.895Z,22.00
2019-02-22T04:53:52.528Z,23.87
2019-02-22T04:57:57.080Z,23.13
2019-02-22T05:02:01.627Z,22.90
2019-02-22T05:06:06.175Z,21.97
2019-02-22T05:10:10.731Z,23.47
2019-02-22T05:14:15.275Z,21.67
2019-02-22T05:18:19.809Z,23.70
2019-02-22T05:22:24.366Z,24.60
2019-02-22T05:26:28.852Z,24.53
2019-02-22T05:30:36.324Z,24.27
2019-02-22T05:34:39.571Z,26.00
2019-02-22T05:38:44.111Z,26.23
2019-02-22T05:42:48.672Z,26.87
2019-02-22T05:47:00.479Z,25.83
2019-02-22T05:50:59.367Z,25.63
2019-02-22T05:55:03.926Z,26.47
2019-02-22T05:59:08.459Z,25.77
2019-02-22T06:03:13.009Z,25.23
2019-02-22T06:07:17.532Z,26.13
2019-02-22T06:11:22.154Z,28.57
2019-02-22T06:15:26.692Z,24.67
2019-02-22T06:19:31.223Z,26.23
2019-02-22T06:23:35.766Z,24.73
2019-02-22T06:27:40.286Z,26.40
2019-02-22T06:31:44.911Z,25.43
2019-02-22T06:35:53.589Z,27.20
2019-02-22T06:39:58.190Z,24.47
2019-02-22T06:44:02.915Z,28.43
2019-02-22T06:48:07.482Z,27.40
2019-02-22T06:52:12.215Z,23.07
2019-02-22T06:56:16.863Z,26.93
2019-02-22T07:00:21.418Z,27.00
2019-02-22T07:04:27.099Z,25.87
2019-02-22T07:08:31.674Z,25.97
2019-02-22T07:12:56.837Z,26.53
2019-02-22T07:16:58.484Z,27.00
2019-02-22T07:21:03.060Z,26.83
2019-02-22T07:25:08.998Z,26.33
2019-02-22T07:29:13.549Z,28.87
2019-02-22T07:33:18.079Z,28.90
2019-02-22T07:37:22.629Z,31.27
2019-02-22T07:41:27.183Z,31.97
2019-02-22T07:45:31.786Z,29.87
2019-02-22T07:49:36.361Z,28.83
2019-02-22T07:53:40.991Z,30.33
2019-02-22T07:57:45.592Z,27.87
2019-02-22T08:01:50.217Z,26.57
2019-02-22T08:05:54.868Z,26.07
2019-02-22T08:09:59.481Z,24.17
2019-02-22T08:14:04.092Z,27.10
2019-02-22T08:18:08.707Z,26.87
2019-02-22T08:22:13.519Z,31.20
2019-02-22T08:26:18.104Z,26.57
2019-02-22T08:30:22.735Z,26.90
2019-02-22T08:34:27.287Z,30.57
2019-02-22T08:38:31.835Z,33.43
2019-02-22T08:42:36.365Z,28.23
2019-02-22T08:46:40.905Z,25.40
2019-02-22T08:50:46.448Z,27.53
2019-02-22T08:54:51.023Z,26.73
2019-02-22T08:58:55.580Z,27.60
2019-02-22T09:03:00.139Z,26.67
2019-02-22T09:07:04.719Z,26.50
2019-02-22T09:11:09.263Z,23.83
2019-02-22T09:15:13.813Z,25.07
2019-02-22T09:19:18.333Z,23.17
2019-02-22T09:23:22.877Z,20.80
2019-02-22T09:27:27.405Z,20.20
2019-02-22T09:31:31.990Z,20.53
2019-02-22T09:35:36.606Z,20.30
2019-02-22T09:39:41.433Z,17.63
2019-02-22T09:43:54.696Z,17.23
2019-02-22T09:47:52.233Z,16.37
2019-02-22T09:51:56.776Z,16.73
2019-02-22T09:56:01.311Z,16.43
2019-02-22T10:00:07.852Z,14.20
2019-02-22T10:04:12.423Z,14.80
2019-02-22T10:08:16.967Z,16.23
2019-02-22T10:12:21.538Z,14.90
2019-02-22T10:16:27.621Z,13.80
2019-02-22T10:20:32.291Z,16.20
2019-02-22T10:24:38.380Z,14.37
2019-02-22T10:28:42.940Z,14.33
2019-02-22T10:32:47.786Z,13.77
2019-02-22T10:36:52.365Z,13.73
2019-02-22T10:40:56.933Z,13.97
2019-02-22T10:45:02.061Z,13.67
2019-02-22T10:49:06.660Z,13.40
2019-02-22T10:53:12.576Z,12.87
2019-02-22T10:57:17.148Z,13.07
2019-02-22T11:01:21.745Z,12.47
2019-02-22T11:05:26.342Z,11.57
2019-02-22T11:09:30.896Z,10.50
2019-02-22T11:13:35.477Z,9.90
2019-02-22T11:17:40.131Z,11.20
2019-02-22T11:21:44.714Z,10.00
2019-02-22T11:25:49.279Z,9.33
2019-02-22T11:29:53.811Z,8.03
2019-02-22T11:33:58.395Z,7.90
2019-02-22T11:38:02.962Z,7.37
2019-02-22T11:42:07.515Z,6.10
2019-02-22T11:46:12.063Z,6.80
2019-02-22T11:50:16.577Z,6.40
2019-02-22T11:54:21.147Z,7.03
2019-02-22T11:58:25.733Z,7.13
2019-02-22T12:02:30.300Z,6.67
2019-02-22T12:06:34.939Z,6.70
2019-02-22T12:10:39.451Z,6.33
2019-02-22T12:14:51.088Z,5.47
2019-02-22T12:18:50.256Z,5.70
2019-02-22T12:22:54.866Z,5.17
2019-02-22T12:26:59.423Z,5.47
2019-02-22T12:31:04.164Z,4.87
2019-02-22T12:35:08.893Z,4.47
2019-02-22T12:39:13.484Z,4.83
2019-02-22T12:43:18.052Z,4.80
2019-02-22T12:47:24.474Z,5.33
2019-02-22T12:51:29.003Z,4.23
2019-02-22T12:55:33.582Z,5.13
2019-02-22T12:59:38.131Z,4.87
2019-02-22T13:03:42.753Z,4.80
2019-02-22T13:07:47.339Z,4.93
2019-02-22T13:11:51.854Z,5.53
2019-02-22T13:15:56.415Z,5.63
2019-02-22T13:20:00.976Z,8.60
2019-02-22T13:24:05.559Z,7.33
2019-02-22T13:28:10.114Z,7.73
2019-02-22T13:32:14.651Z,8.13
2019-02-22T13:36:19.674Z,8.40
2019-02-22T13:40:24.337Z,8.47
2019-02-22T13:44:28.923Z,8.90
2019-02-22T13:48:33.485Z,7.87
2019-02-22T13:52:38.007Z,8.77
2019-02-22T13:56:42.584Z,8.43
2019-02-22T14:00:47.134Z,8.40
2019-02-22T14:04:51.683Z,8.40
2019-02-22T14:08:56.242Z,9.15
2019-02-22T14:13:00.770Z,6.93
2019-02-22T14:17:05.348Z,7.37
2019-02-22T14:21:09.920Z,6.40
2019-02-22T14:25:14.495Z,5.20
2019-02-22T14:29:19.037Z,6.13
2019-02-22T14:33:23.558Z,5.40
2019-02-22T14:37:28.136Z,6.43
2019-02-22T14:41:32.742Z,6.03
2019-02-22T14:45:48.522Z,5.80
2019-02-22T14:49:43.583Z,6.17
2019-02-22T14:53:48.149Z,5.40
2019-02-22T14:57:52.748Z,5.53
2019-02-22T15:01:57.325Z,5.97
2019-02-22T15:06:01.918Z,4.83
2019-02-22T15:10:07.091Z,5.30
2019-02-22T15:14:11.604Z,5.90
2019-02-22T15:18:16.187Z,5.73
2019-02-22T15:22:22.213Z,7.30
2019-02-22T15:26:26.782Z,7.50
2019-02-22T15:30:31.386Z,8.10
2019-02-22T15:34:35.901Z,7.97
2019-02-22T15:38:40.484Z,8.20
2019-02-22T15:42:45.114Z,8.30
2019-02-22T15:46:49.682Z,9.30
2019-02-22T15:50:54.276Z,10.30
2019-02-22T15:54:58.826Z,11.40
2019-02-22T15:59:03.433Z,12.20
2019-02-22T16:03:08.020Z,15.30
2019-02-22T16:07:12.685Z,16.45
2019-02-22T16:11:17.232Z,13.83
2019-02-22T16:15:21.845Z,13.55
2019-02-22T16:19:26.484Z,12.60
2019-02-22T16:23:31.193Z,13.70
2019-02-22T16:27:35.800Z,14.87
2019-02-22T16:31:40.343Z,14.25
2019-02-22T16:35:44.933Z,17.30
2019-02-22T16:39:52.310Z,18.07
2019-02-22T16:43:55.858Z,17.85
2019-02-22T16:48:00.475Z,17.15
2019-02-22T16:52:05.008Z,14.58
2019-02-22T16:56:10.090Z,14.70
2019-02-22T17:00:15.307Z,14.60
2019-02-22T17:04:19.848Z,14.17
2019-02-22T17:08:24.456Z,15.43
2019-02-22T17:12:28.983Z,14.75
2019-02-22T17:16:33.562Z,13.67
2019-02-22T17:20:38.149Z,13.10
2019-02-22T17:24:42.699Z,13.00
2019-02-22T17:40:57.653Z,12.17
2019-02-22T17:45:02.227Z,11.80
2019-02-22T17:49:06.744Z,13.00
2019-02-22T17:53:11.324Z,13.17
2019-02-22T17:57:15.862Z,12.93
2019-02-22T18:01:20.403Z,12.43
2019-02-22T18:05:24.968Z,12.80
2019-02-22T18:09:29.524Z,12.23
2019-02-22T18:13:34.087Z,15.35
2019-02-22T18:17:38.697Z,15.43
2019-02-22T18:21:43.271Z,15.65
2019-02-22T18:25:47.838Z,15.50
2019-02-22T18:29:52.361Z,14.43
2019-02-22T18:33:56.962Z,14.33
2019-02-22T18:38:01.528Z,14.25
2019-02-22T18:42:06.072Z,13.57
2019-02-22T18:46:10.646Z,14.58
2019-02-22T18:50:15.155Z,14.20
2019-02-22T18:54:19.714Z,13.75
2019-02-22T18:58:24.306Z,13.85
2019-02-22T19:02:28.871Z,14.55
2019-02-22T19:06:34.029Z,15.47
2019-02-22T19:10:38.547Z,16.60
2019-02-22T19:14:43.092Z,17.73
2019-02-22T19:18:47.651Z,18.07
2019-02-22T19:22:52.196Z,20.52
2019-02-22T19:26:57.143Z,21.23
2019-02-22T19:31:01.648Z,23.07
2019-02-22T19:35:06.379Z,25.77
2019-02-22T19:39:10.929Z,27.32
2019-02-22T19:43:15.544Z,31.37
2019-02-22T19:47:20.076Z,36.33
2019-02-22T19:51:24.627Z,36.95
2019-02-22T19:55:29.176Z,38.28
2019-02-22T19:59:33.716Z,38.53
2019-02-22T20:03:38.274Z,40.28
2019-02-22T20:07:42.886Z,38.73
2019-02-22T20:11:48.204Z,39.70
2019-02-22T20:15:53.292Z,41.55
2019-02-22T20:19:58.223Z,39.92
2019-02-22T20:24:02.785Z,42.17
2019-02-22T20:28:07.279Z,43.10
2019-02-22T20:32:11.811Z,42.75
2019-02-22T20:36:16.383Z,44.23
2019-02-22T20:40:21.029Z,44.65
2019-02-22T20:44:25.602Z,43.43
2019-02-22T20:48:30.127Z,44.73
2019-02-22T20:52:34.672Z,44.75
2019-02-22T20:56:39.212Z,43.87
2019-02-22T21:00:43.775Z,43.45
2019-02-22T21:04:48.279Z,43.52
2019-02-22T21:08:52.872Z,45.03
2019-02-22T21:12:57.604Z,44.50
2019-02-22T21:17:02.135Z,43.52
2019-02-22T21:21:06.704Z,43.08
2019-02-22T21:25:11.396Z,42.33
2019-02-22T21:29:15.943Z,41.60
2019-02-22T21:33:20.561Z,40.85
2019-02-22T21:37:25.148Z,38.30
2019-02-22T21:41:29.684Z,36.00
2019-02-22T21:45:34.239Z,33.30
2019-02-22T21:49:38.755Z,31.35
2019-02-22T21:53:43.316Z,29.37
2019-02-22T21:57:47.847Z,28.80
2019-02-22T22:01:52.410Z,27.82
2019-02-22T22:05:56.983Z,27.77
2019-02-22T22:10:01.551Z,25.35
2019-02-22T22:14:06.113Z,23.50
2019-02-22T22:18:10.659Z,22.60
2019-02-22T22:22:15.295Z,22.77
2019-02-22T22:26:19.860Z,22.62
2019-02-22T22:30:24.379Z,22.10
2019-02-22T22:34:28.950Z,21.60
2019-02-22T22:38:33.510Z,21.50
2019-02-22T22:42:38.191Z,21.12
2019-02-22T22:46:42.691Z,21.37
2019-02-22T22:50:47.231Z,21.80
2019-02-22T22:54:51.800Z,21.40
2019-02-22T22:58:56.344Z,21.68
2019-02-22T23:03:00.891Z,21.37
2019-02-22T23:07:05.452Z,20.37
2019-02-22T23:11:10.004Z,20.62
2019-02-22T23:15:14.516Z,19.93
2019-02-22T23:19:19.067Z,20.50
2019-02-22T23:23:23.713Z,20.02
2019-02-22T23:27:28.239Z,19.82
2019-02-22T23:31:32.791Z,19.65
2019-02-22T23:35:37.354Z,20.88
2019-02-22T23:39:41.890Z,20.75
2019-02-22T23:43:46.383Z,19.48
2019-02-22T23:47:50.980Z,20.25
2019-02-22T23:51:55.626Z,20.23
2019-02-22T23:56:00.167Z,20.88
